createdAt,value
2018-09-08T00:01:38.222Z,3.23
2018-09-08T00:04:06.827Z,3.20
2018-09-08T00:06:36.159Z,3.20
2018-09-08T00:09:07.843Z,3.30
2018-09-08T00:11:36.383Z,2.90
2018-09-08T00:14:05.004Z,3.13
2018-09-08T00:16:38.869Z,3.60
2018-09-08T00:19:12.793Z,3.20
2018-09-08T00:21:46.555Z,3.60
2018-09-08T00:24:21.018Z,3.10
2018-09-08T00:26:48.718Z,3.57
2018-09-08T00:29:26.243Z,3.20
2018-09-08T00:31:55.217Z,3.13
2018-09-08T00:34:23.695Z,3.27
2018-09-08T00:36:52.134Z,3.47
2018-09-08T00:39:20.600Z,3.80
2018-09-08T00:41:49.097Z,2.90
2018-09-08T00:44:17.626Z,3.20
2018-09-08T00:46:46.109Z,3.30
2018-09-08T00:49:14.575Z,3.33
2018-09-08T00:51:43.055Z,2.97
2018-09-08T00:54:11.564Z,2.90
2018-09-08T00:56:40.032Z,3.30
2018-09-08T00:59:08.617Z,2.97
2018-09-08T01:01:37.134Z,3.40
2018-09-08T01:04:05.607Z,2.77
2018-09-08T01:06:34.076Z,3.20
2018-09-08T01:09:02.602Z,2.23
2018-09-08T01:11:31.034Z,3.00
2018-09-08T01:13:59.523Z,3.53
2018-09-08T01:16:27.982Z,3.97
2018-09-08T01:18:56.436Z,3.20
2018-09-08T01:21:24.934Z,3.43
2018-09-08T01:23:54.346Z,3.30
2018-09-08T01:26:23.447Z,3.00
2018-09-08T01:28:52.429Z,3.20
2018-09-08T01:31:21.444Z,3.00
2018-09-08T01:33:49.890Z,3.30
2018-09-08T01:36:18.380Z,3.23
2018-09-08T01:38:46.888Z,3.60
2018-09-08T01:41:15.396Z,3.17
2018-09-08T01:43:43.835Z,2.80
2018-09-08T01:46:12.314Z,3.23
2018-09-08T01:48:40.753Z,3.27
2018-09-08T01:51:09.205Z,3.53
2018-09-08T01:53:37.655Z,2.90
2018-09-08T01:56:06.134Z,2.90
2018-09-08T01:58:34.591Z,2.87
2018-09-08T02:01:03.051Z,2.90
2018-09-08T02:03:31.472Z,3.10
2018-09-08T02:06:00.403Z,2.97
2018-09-08T02:08:29.128Z,2.73
2018-09-08T02:10:57.592Z,2.37
2018-09-08T02:13:26.052Z,3.07
2018-09-08T02:15:54.504Z,2.40
2018-09-08T02:18:22.963Z,3.00
2018-09-08T02:20:51.443Z,2.67
2018-09-08T02:23:19.889Z,3.00
2018-09-08T02:25:48.779Z,2.97
2018-09-08T02:28:17.558Z,3.10
2018-09-08T02:30:46.015Z,2.27
2018-09-08T02:33:14.765Z,2.70
2018-09-08T02:35:43.826Z,2.73
2018-09-08T02:38:12.261Z,2.93
2018-09-08T02:40:40.782Z,2.60
2018-09-08T02:43:09.209Z,2.87
2018-09-08T02:45:37.701Z,3.23
2018-09-08T02:48:06.149Z,2.63
2018-09-08T02:50:36.727Z,3.00
2018-09-08T02:53:04.755Z,3.47
2018-09-08T02:55:32.772Z,3.03
2018-09-08T02:58:00.275Z,2.80
2018-09-08T03:00:29.178Z,3.70
2018-09-08T03:02:56.514Z,2.80
2018-09-08T03:05:24.094Z,2.33
2018-09-08T03:07:51.490Z,3.13
2018-09-08T03:10:19.428Z,3.00
2018-09-08T03:12:46.763Z,3.57
2018-09-08T03:15:14.140Z,3.40
2018-09-08T03:17:41.467Z,3.20
2018-09-08T03:20:08.823Z,3.10
2018-09-08T03:22:36.470Z,2.87
2018-09-08T03:25:03.776Z,2.80
2018-09-08T03:27:31.105Z,2.90
2018-09-08T03:29:58.413Z,2.60
2018-09-08T03:32:25.760Z,2.70
2018-09-08T03:34:53.068Z,3.13
2018-09-08T03:37:20.400Z,3.10
2018-09-08T03:39:47.710Z,2.83
2018-09-08T03:42:15.057Z,3.13
2018-09-08T03:44:42.371Z,3.17
2018-09-08T03:47:09.724Z,3.03
2018-09-08T03:49:37.387Z,3.10
2018-09-08T03:52:05.008Z,2.70
2018-09-08T03:54:32.327Z,3.10
2018-09-08T03:56:59.685Z,2.80
2018-09-08T03:59:27.076Z,3.03
2018-09-08T04:01:54.415Z,3.17
2018-09-08T04:04:23.153Z,3.13
2018-09-08T04:06:51.598Z,2.90
2018-09-08T04:09:20.058Z,2.90
2018-09-08T04:11:48.521Z,3.10
2018-09-08T04:14:16.942Z,3.10
2018-09-08T04:16:45.618Z,3.57
2018-09-08T04:19:14.354Z,3.20
2018-09-08T04:21:42.803Z,2.87
2018-09-08T04:24:11.322Z,3.53
2018-09-08T04:26:39.763Z,3.67
2018-09-08T04:29:08.198Z,3.07
2018-09-08T04:31:36.665Z,2.87
2018-09-08T04:34:05.131Z,3.10
2018-09-08T04:36:33.596Z,3.17
2018-09-08T04:39:02.018Z,3.53
2018-09-08T04:41:30.702Z,3.43
2018-09-08T04:43:59.516Z,3.07
2018-09-08T04:46:27.998Z,4.30
2018-09-08T04:48:56.452Z,3.37
2018-09-08T04:51:24.950Z,3.30
2018-09-08T04:53:53.447Z,3.07
2018-09-08T04:56:21.931Z,3.53
2018-09-08T04:58:50.391Z,3.40
2018-09-08T05:01:18.848Z,3.00
2018-09-08T05:03:47.317Z,3.60
2018-09-08T05:06:16.123Z,3.00
2018-09-08T05:08:44.607Z,3.33
2018-09-08T05:11:13.311Z,2.93
2018-09-08T05:13:41.792Z,2.80
2018-09-08T05:16:10.279Z,3.23
2018-09-08T05:18:38.722Z,3.50
2018-09-08T05:21:13.646Z,3.37
2018-09-08T05:23:42.120Z,2.63
2018-09-08T05:26:10.732Z,3.20
2018-09-08T05:28:39.183Z,3.70
2018-09-08T05:31:07.636Z,3.70
2018-09-08T05:33:36.038Z,3.20
2018-09-08T05:36:04.486Z,3.93
2018-09-08T05:38:33.514Z,3.23
2018-09-08T05:41:01.935Z,3.20
2018-09-08T05:43:30.358Z,3.30
2018-09-08T05:45:58.774Z,3.80
2018-09-08T05:48:27.595Z,3.67
2018-09-08T05:50:56.438Z,3.70
2018-09-08T05:53:25.114Z,3.63
2018-09-08T05:55:53.652Z,3.67
2018-09-08T05:58:22.356Z,4.17
2018-09-08T06:00:51.399Z,4.80
2018-09-08T06:03:19.858Z,4.67
2018-09-08T06:05:48.322Z,5.27
2018-09-08T06:08:16.807Z,5.33
2018-09-08T06:10:45.226Z,5.33
2018-09-08T06:13:14.298Z,5.60
2018-09-08T06:15:42.775Z,5.63
2018-09-08T06:18:11.549Z,5.87
2018-09-08T06:20:39.986Z,5.00
2018-09-08T06:23:08.454Z,5.20
2018-09-08T06:25:36.968Z,5.20
2018-09-08T06:28:05.526Z,6.50
2018-09-08T06:30:33.975Z,5.83
2018-09-08T06:33:02.440Z,4.53
2018-09-08T06:35:30.912Z,5.10
2018-09-08T06:37:59.389Z,5.37
2018-09-08T06:40:27.845Z,5.60
2018-09-08T06:42:56.348Z,5.63
2018-09-08T06:45:24.827Z,5.80
2018-09-08T06:47:53.368Z,5.80
2018-09-08T06:50:21.855Z,6.30
2018-09-08T06:52:50.415Z,6.67
2018-09-08T06:55:18.884Z,5.60
2018-09-08T06:57:47.686Z,6.17
2018-09-08T07:00:16.308Z,5.47
2018-09-08T07:02:45.075Z,5.50
2018-09-08T07:05:13.903Z,6.33
2018-09-08T07:07:42.436Z,7.00
2018-09-08T07:10:10.928Z,6.37
2018-09-08T07:12:39.419Z,6.43
2018-09-08T07:15:07.959Z,6.03
2018-09-08T07:17:36.714Z,5.60
2018-09-08T07:20:05.935Z,6.53
2018-09-08T07:22:34.403Z,6.10
2018-09-08T07:25:03.090Z,5.60
2018-09-08T07:27:31.440Z,5.57
2018-09-08T07:29:59.876Z,5.80
2018-09-08T07:32:28.414Z,6.03
2018-09-08T07:34:56.834Z,5.00
2018-09-08T07:37:25.327Z,4.80
2018-09-08T07:39:53.774Z,4.43
2018-09-08T07:42:22.245Z,5.17
2018-09-08T07:44:50.691Z,4.67
2018-09-08T07:47:19.153Z,4.27
2018-09-08T07:49:47.571Z,4.30
2018-09-08T07:52:16.033Z,4.07
2018-09-08T07:54:44.490Z,4.13
2018-09-08T07:57:12.998Z,4.17
2018-09-08T07:59:41.439Z,3.70
2018-09-08T08:02:10.174Z,4.17
